Time;durP1;ratioP1;P1;durP2;ratioP2;P2;SDS_P1;SDS_P2;PMS_P1;PMS_P2;Temp;Humidity;BMP_temperature;BMP_pressure;BME280_temperature;BME280_humidity;BME280_pressure;Samples;Min_cycle;Max_cycle;Signal;HPM_P1;HPM_P2
2023/10/31 00:02:14;;;;;;;2.35;1.13;;;12.70;99.90;;;;;;4990300;28;20034;-74
2023/10/31 00:04:39;;;;;;;4.60;1.73;;;12.70;99.90;;;;;;4991026;28;20063;-74
2023/10/31 00:07:05;;;;;;;4.15;1.73;;;12.70;99.90;;;;;;4987636;28;20492;-75
2023/10/31 00:09:31;;;;;;;2.72;1.27;;;12.70;99.90;;;;;;4994580;28;20023;-75
2023/10/31 00:11:58;;;;;;;3.05;1.70;;;12.70;99.90;;;;;;4987054;28;20081;-75
2023/10/31 00:14:24;;;;;;;4.03;1.55;;;12.70;99.90;;;;;;4991429;28;20060;-75
2023/10/31 00:16:49;;;;;;;1.52;0.73;;;12.70;99.90;;;;;;4992765;28;20034;-75
2023/10/31 00:19:15;;;;;;;2.67;0.95;;;12.70;99.90;;;;;;4990851;28;20054;-75
2023/10/31 00:21:41;;;;;;;3.70;1.13;;;12.70;99.90;;;;;;4995013;28;20031;-75
2023/10/31 00:24:07;;;;;;;2.08;0.95;;;12.80;99.90;;;;;;4991030;28;20068;-75
2023/10/31 00:26:32;;;;;;;4.82;1.55;;;12.90;99.90;;;;;;4992355;28;20065;-75
2023/10/31 00:28:58;;;;;;;3.97;0.82;;;12.80;99.90;;;;;;4994767;28;20030;-75
2023/10/31 00:31:24;;;;;;;2.83;1.63;;;13.00;99.90;;;;;;4991719;28;20077;-74
2023/10/31 00:33:49;;;;;;;3.35;0.77;;;13.00;99.90;;;;;;4993318;28;20038;-75
2023/10/31 00:36:15;;;;;;;2.30;1.00;;;13.40;99.90;;;;;;4995988;28;20093;-75
2023/10/31 00:38:41;;;;;;;3.78;1.65;;;13.50;99.90;;;;;;4998981;28;20026;-75
2023/10/31 00:41:07;;;;;;;3.28;1.00;;;13.90;99.90;;;;;;4993452;28;20041;-74
2023/10/31 00:43:32;;;;;;;4.93;1.75;;;14.00;99.90;;;;;;4990415;28;20077;-74
2023/10/31 00:45:58;;;;;;;3.67;0.95;;;13.90;99.90;;;;;;4990025;28;20046;-74
2023/10/31 00:48:24;;;;;;;5.50;1.15;;;14.00;99.90;;;;;;4991383;28;20076;-74
2023/10/31 00:50:49;;;;;;;6.28;1.55;;;13.90;99.90;;;;;;4993740;28;20029;-75
2023/10/31 00:53:16;;;;;;;7.28;1.35;;;13.90;99.90;;;;;;4990414;28;20480;-75
2023/10/31 00:55:42;;;;;;;3.80;1.48;;;14.00;99.90;;;;;;4994031;28;20266;-75
2023/10/31 00:58:08;;;;;;;6.30;1.33;;;14.00;99.90;;;;;;4991357;28;20045;-75
2023/10/31 01:00:34;;;;;;;4.15;1.33;;;14.00;99.90;;;;;;4995014;28;20117;-74
2023/10/31 01:03:00;;;;;;;2.70;0.88;;;14.00;99.90;;;;;;4991736;28;20098;-74
2023/10/31 01:05:26;;;;;;;6.97;1.77;;;14.10;99.90;;;;;;4989815;28;20496;-74
2023/10/31 01:07:52;;;;;;;2.67;1.13;;;14.10;99.90;;;;;;4992054;28;20035;-74
2023/10/31 01:10:18;;;;;;;3.38;1.10;;;14.10;99.90;;;;;;5000420;28;20034;-75
2023/10/31 01:12:43;;;;;;;5.88;1.83;;;14.10;99.90;;;;;;4995296;28;20026;-74
2023/10/31 01:15:09;;;;;;;2.47;0.98;;;13.90;99.90;;;;;;4994503;28;20137;-74
2023/10/31 01:17:35;;;;;;;6.60;2.08;;;14.10;99.90;;;;;;4996758;28;20036;-75
2023/10/31 01:20:00;;;;;;;4.85;1.20;;;14.10;99.90;;;;;;4991406;28;20054;-75
2023/10/31 01:22:26;;;;;;;4.32;0.88;;;14.20;99.90;;;;;;4996301;28;20034;-74
2023/10/31 01:24:52;;;;;;;4.72;1.33;;;14.10;99.90;;;;;;4992033;28;20034;-74
2023/10/31 01:27:18;;;;;;;3.67;1.42;;;14.00;99.90;;;;;;4990882;28;20026;-74
2023/10/31 01:29:43;;;;;;;5.00;1.98;;;14.40;99.90;;;;;;4992122;28;20026;-74
2023/10/31 01:32:09;;;;;;;2.53;1.00;;;14.30;99.90;;;;;;4992938;28;20034;-74
2023/10/31 01:34:35;;;;;;;3.72;1.00;;;14.30;99.90;;;;;;4990587;28;20037;-74
2023/10/31 01:37:00;;;;;;;6.07;1.98;;;14.30;99.90;;;;;;4989328;28;20088;-75
2023/10/31 01:39:26;;;;;;;4.68;1.10;;;14.10;99.90;;;;;;4991116;28;20019;-74
2023/10/31 01:41:54;;;;;;;6.00;1.38;;;14.20;99.90;;;;;;4992034;28;20487;-75
2023/10/31 01:44:20;;;;;;;8.95;2.03;;;14.20;99.90;;;;;;4989764;28;20088;-75
2023/10/31 01:46:46;;;;;;;6.30;1.48;;;14.20;99.90;;;;;;4996226;28;20026;-75
2023/10/31 01:49:12;;;;;;;4.13;1.10;;;14.60;99.90;;;;;;4991570;28;20510;-74
2023/10/31 01:51:38;;;;;;;5.95;1.17;;;14.50;99.90;;;;;;4989789;28;20428;-75
2023/10/31 01:54:04;;;;;;;7.20;1.90;;;14.70;99.90;;;;;;4991086;28;20045;-75
2023/10/31 01:56:30;;;;;;;4.53;1.60;;;14.90;99.90;;;;;;4988217;28;20488;-75
2023/10/31 01:58:55;;;;;;;5.00;1.20;;;14.70;99.90;;;;;;4990497;28;20389;-75
2023/10/31 02:01:21;;;;;;;4.88;1.73;;;14.30;99.90;;;;;;4991881;28;20027;-75
2023/10/31 02:03:47;;;;;;;4.07;1.20;;;14.10;99.90;;;;;;4993633;28;20031;-75
2023/10/31 02:06:13;;;;;;;4.95;1.40;;;14.00;99.90;;;;;;4993220;28;20480;-75
2023/10/31 02:08:39;;;;;;;3.80;1.55;;;14.00;99.90;;;;;;4992359;28;20041;-75
2023/10/31 02:11:09;;;;;;;8.85;1.75;;;13.90;99.90;;;;;;4988815;28;20117;-75
2023/10/31 02:13:35;;;;;;;6.40;1.90;;;13.90;99.90;;;;;;4998586;28;20050;-75
2023/10/31 02:16:01;;;;;;;8.95;1.20;;;14.20;99.90;;;;;;4991446;28;20539;-75
2023/10/31 02:18:27;;;;;;;5.70;2.05;;;14.30;99.90;;;;;;4993342;28;20030;-75
2023/10/31 02:20:53;;;;;;;7.13;2.00;;;14.50;99.90;;;;;;4993381;28;20034;-74
2023/10/31 02:23:18;;;;;;;4.65;1.48;;;14.30;99.90;;;;;;4990119;28;20164;-74
2023/10/31 02:25:44;;;;;;;3.47;1.20;;;14.50;99.90;;;;;;4991829;28;21214;-74
2023/10/31 02:28:10;;;;;;;3.05;0.80;;;14.40;99.90;;;;;;4990007;28;20100;-75
2023/10/31 02:30:35;;;;;;;5.20;1.00;;;14.20;99.90;;;;;;4988753;28;20030;-75
2023/10/31 02:33:02;;;;;;;3.28;0.93;;;14.50;99.90;;;;;;4990643;28;20161;-74
2023/10/31 02:35:28;;;;;;;9.70;2.35;;;14.20;99.90;;;;;;4988030;28;20030;-74
2023/10/31 02:37:54;;;;;;;10.00;1.50;;;14.20;99.90;;;;;;4989199;28;20033;-74
2023/10/31 02:40:19;;;;;;;5.80;1.33;;;14.20;99.90;;;;;;4985793;28;20041;-74
2023/10/31 02:42:45;;;;;;;4.75;1.75;;;14.10;99.90;;;;;;4990132;28;20034;-74
2023/10/31 02:45:11;;;;;;;4.70;1.70;;;14.30;99.90;;;;;;4987050;28;20035;-74
2023/10/31 02:47:37;;;;;;;3.35;0.93;;;14.30;99.90;;;;;;4991012;28;20030;-74
2023/10/31 02:50:03;;;;;;;3.22;0.90;;;14.30;99.90;;;;;;4992884;28;20513;-74
2023/10/31 02:52:29;;;;;;;6.68;1.40;;;14.30;99.90;;;;;;4990478;28;20487;-74
2023/10/31 02:54:54;;;;;;;7.07;1.30;;;14.20;99.90;;;;;;4992390;28;20066;-75
2023/10/31 02:57:20;;;;;;;4.72;1.42;;;14.30;99.90;;;;;;4995140;28;20535;-74
2023/10/31 02:59:46;;;;;;;4.78;0.98;;;14.30;99.90;;;;;;4990040;28;20484;-74
2023/10/31 03:02:12;;;;;;;5.13;1.13;;;14.20;99.90;;;;;;4990781;28;20054;-74
2023/10/31 03:04:37;;;;;;;4.50;1.77;;;14.20;99.90;;;;;;4989283;28;20026;-74
2023/10/31 03:07:03;;;;;;;4.43;1.20;;;14.10;99.90;;;;;;4988748;28;20105;-74
2023/10/31 03:09:29;;;;;;;5.00;1.10;;;14.20;99.90;;;;;;4991054;28;20035;-74
2023/10/31 03:11:55;;;;;;;9.13;2.42;;;14.30;99.90;;;;;;4994861;28;20388;-74
2023/10/31 03:14:20;;;;;;;2.72;0.90;;;14.20;99.90;;;;;;4992291;28;20403;-74
2023/10/31 03:16:46;;;;;;;3.40;0.93;;;14.10;99.90;;;;;;4999202;28;20042;-74
2023/10/31 03:19:12;;;;;;;2.85;1.40;;;14.20;99.90;;;;;;4993265;28;20093;-74
2023/10/31 03:21:38;;;;;;;6.63;1.50;;;14.50;99.90;;;;;;4992970;28;20109;-74
2023/10/31 03:24:04;;;;;;;5.13;1.17;;;14.30;99.90;;;;;;4993400;28;20030;-74
2023/10/31 03:26:30;;;;;;;2.55;1.10;;;14.50;99.90;;;;;;4993465;28;20033;-75
2023/10/31 03:28:57;;;;;;;3.47;1.50;;;14.30;99.90;;;;;;4996349;28;20547;-74
2023/10/31 03:31:23;;;;;;;2.65;1.50;;;14.20;99.90;;;;;;4995022;28;20045;-74
2023/10/31 03:33:49;;;;;;;3.22;1.00;;;14.30;99.90;;;;;;4992598;28;20062;-74
2023/10/31 03:36:15;;;;;;;5.60;1.27;;;14.20;99.90;;;;;;4991550;28;20088;-75
2023/10/31 03:38:41;;;;;;;5.95;1.30;;;14.30;99.90;;;;;;4993179;28;20031;-75
2023/10/31 03:41:07;;;;;;;4.60;1.10;;;14.30;99.90;;;;;;4999044;28;20472;-75
2023/10/31 03:43:33;;;;;;;4.60;1.15;;;14.30;99.90;;;;;;4995510;28;20447;-74
2023/10/31 03:45:58;;;;;;;4.30;1.75;;;14.50;99.90;;;;;;4994475;28;20027;-74
2023/10/31 03:48:24;;;;;;;8.23;1.65;;;14.40;99.90;;;;;;4999435;28;20488;-74
2023/10/31 03:50:50;;;;;;;7.45;1.90;;;14.30;99.90;;;;;;4997554;28;20388;-74
2023/10/31 03:53:16;;;;;;;2.95;1.10;;;14.40;99.90;;;;;;4992107;28;20018;-74
2023/10/31 03:55:41;;;;;;;3.65;0.82;;;14.30;99.90;;;;;;4994351;28;20369;-74
2023/10/31 03:58:07;;;;;;;5.38;1.70;;;14.40;99.90;;;;;;4995753;28;20034;-74
2023/10/31 04:00:33;;;;;;;6.93;1.40;;;14.30;99.90;;;;;;4995384;28;20559;-74
2023/10/31 04:02:59;;;;;;;5.43;0.95;;;14.60;99.90;;;;;;4992596;28;20042;-74
2023/10/31 04:05:25;;;;;;;5.80;1.35;;;14.60;99.90;;;;;;4993737;28;20575;-75
2023/10/31 04:07:50;;;;;;;1.88;0.98;;;14.40;99.90;;;;;;4992747;28;20064;-74
2023/10/31 04:10:18;;;;;;;5.45;1.92;;;14.30;99.90;;;;;;4990758;28;20488;-74
2023/10/31 04:12:44;;;;;;;5.00;1.35;;;14.50;99.90;;;;;;4985801;28;20098;-74
2023/10/31 04:15:10;;;;;;;5.35;1.30;;;14.60;99.90;;;;;;4986550;28;20693;-74
2023/10/31 04:17:36;;;;;;;3.28;1.27;;;14.40;99.90;;;;;;4985374;28;20030;-74
2023/10/31 04:20:02;;;;;;;5.32;1.17;;;14.40;99.90;;;;;;4984799;28;20034;-74
2023/10/31 04:22:27;;;;;;;6.18;1.70;;;14.40;99.90;;;;;;4987705;28;20026;-74
2023/10/31 04:24:53;;;;;;;3.90;1.15;;;14.40;99.90;;;;;;4986506;28;20026;-74
2023/10/31 04:27:19;;;;;;;4.35;1.20;;;14.40;99.90;;;;;;4989065;28;20164;-74
2023/10/31 04:29:45;;;;;;;4.85;1.48;;;14.40;99.90;;;;;;4988053;28;20027;-74
2023/10/31 04:32:11;;;;;;;3.75;1.10;;;14.50;99.90;;;;;;4993109;28;20053;-72
2023/10/31 04:34:37;;;;;;;4.75;1.75;;;14.60;99.90;;;;;;4990121;28;20467;-74
2023/10/31 04:37:02;;;;;;;3.10;1.38;;;14.50;99.90;;;;;;4988788;28;20477;-73
2023/10/31 04:39:28;;;;;;;5.55;1.38;;;14.40;99.90;;;;;;4994341;28;20515;-73
2023/10/31 04:41:54;;;;;;;4.00;1.08;;;14.40;99.90;;;;;;4997446;28;20034;-74
2023/10/31 04:44:19;;;;;;;7.93;1.33;;;14.30;99.90;;;;;;4986633;28;20030;-74
2023/10/31 04:46:45;;;;;;;3.35;1.02;;;14.30;99.90;;;;;;4986702;28;20500;-74
2023/10/31 04:49:11;;;;;;;5.38;1.10;;;14.20;99.90;;;;;;4990191;28;20036;-74
2023/10/31 04:51:37;;;;;;;5.95;1.58;;;14.10;99.90;;;;;;4988262;28;20491;-74
2023/10/31 04:54:04;;;;;;;6.93;1.25;;;14.50;99.90;;;;;;4986188;28;20087;-75
2023/10/31 04:56:30;;;;;;;8.40;1.52;;;14.60;99.90;;;;;;4992711;28;20026;-75
2023/10/31 04:58:56;;;;;;;4.07;1.30;;;14.50;99.90;;;;;;4984309;28;20439;-75
2023/10/31 05:01:22;;;;;;;5.40;1.63;;;14.40;99.90;;;;;;4984189;28;20038;-76
2023/10/31 05:03:47;;;;;;;3.90;1.55;;;14.50;99.90;;;;;;4985035;28;20022;-75
2023/10/31 05:06:13;;;;;;;4.50;1.52;;;14.50;99.90;;;;;;4980729;28;20133;-75
2023/10/31 05:08:39;;;;;;;5.20;1.38;;;14.40;99.90;;;;;;4990868;28;20615;-75
2023/10/31 05:11:04;;;;;;;4.15;1.20;;;14.40;99.90;;;;;;4991357;28;20447;-74
2023/10/31 05:13:30;;;;;;;5.75;1.80;;;14.40;99.90;;;;;;4983629;28;20080;-75
2023/10/31 05:15:56;;;;;;;6.95;1.75;;;14.20;99.90;;;;;;4987298;28;20129;-75
2023/10/31 05:18:22;;;;;;;3.60;1.40;;;14.00;99.90;;;;;;4986062;28;20088;-74
2023/10/31 05:20:47;;;;;;;3.60;1.58;;;13.90;99.90;;;;;;4990095;28;20145;-75
2023/10/31 05:23:14;;;;;;;6.95;1.45;;;13.90;99.90;;;;;;4986646;28;20046;-75
2023/10/31 05:25:39;;;;;;;4.38;1.65;;;13.90;99.90;;;;;;4983449;28;20054;-75
2023/10/31 05:28:05;;;;;;;5.60;1.35;;;13.90;99.90;;;;;;4988786;28;20022;-75
2023/10/31 05:30:31;;;;;;;4.55;1.77;;;13.90;99.90;;;;;;4983980;28;20053;-75
2023/10/31 05:32:56;;;;;;;5.03;2.00;;;13.80;99.90;;;;;;4994759;28;20033;-75
2023/10/31 05:35:22;;;;;;;4.43;1.85;;;13.80;99.90;;;;;;4989798;28;20042;-75
2023/10/31 05:37:48;;;;;;;5.05;1.77;;;13.70;99.90;;;;;;4991824;28;20885;-75
2023/10/31 05:40:15;;;;;;;5.88;2.65;;;13.60;99.90;;;;;;4994167;28;20036;-76
2023/10/31 05:42:42;;;;;;;5.00;2.30;;;13.60;99.90;;;;;;4988232;28;20026;-74
2023/10/31 05:45:08;;;;;;;8.40;2.20;;;13.50;99.90;;;;;;4987491;28;20066;-76
2023/10/31 05:47:34;;;;;;;4.90;2.05;;;13.50;99.90;;;;;;4983589;28;20049;-76
2023/10/31 05:49:59;;;;;;;6.43;1.80;;;13.50;99.90;;;;;;4985919;28;20026;-76
2023/10/31 05:52:32;;;;;;;5.55;2.00;;;13.50;99.90;;;;;;4996942;28;20384;-76
2023/10/31 05:54:58;;;;;;;7.57;2.58;;;13.40;99.90;;;;;;4989612;28;20034;-74
2023/10/31 05:57:24;;;;;;;40.72;6.88;;;13.40;99.90;;;;;;4982190;28;20030;-74
2023/10/31 05:59:50;;;;;;;7.15;2.53;;;13.30;99.90;;;;;;4988725;28;20578;-74
2023/10/31 06:02:15;;;;;;;7.18;2.30;;;13.30;99.90;;;;;;4986795;28;20388;-74
2023/10/31 06:04:41;;;;;;;6.05;2.17;;;13.30;99.90;;;;;;4988401;28;20034;-74
2023/10/31 06:07:07;;;;;;;5.43;2.25;;;13.30;99.90;;;;;;4994103;28;20030;-75
2023/10/31 06:09:33;;;;;;;7.43;2.42;;;13.40;99.90;;;;;;4985898;28;20068;-74
2023/10/31 06:12:02;;;;;;;5.03;2.17;;;13.40;99.90;;;;;;4988686;28;20448;-74
2023/10/31 06:14:28;;;;;;;10.52;3.80;;;13.40;99.90;;;;;;4982501;28;20431;-75
2023/10/31 06:16:54;;;;;;;6.22;3.15;;;13.30;99.90;;;;;;4980002;28;20097;-73
2023/10/31 06:19:20;;;;;;;6.10;3.20;;;13.30;99.90;;;;;;4991619;28;20041;-75
2023/10/31 06:21:46;;;;;;;8.52;3.45;;;13.30;99.90;;;;;;4981429;28;20124;-74
2023/10/31 06:24:11;;;;;;;10.90;3.72;;;13.30;99.90;;;;;;4989267;28;20034;-73
2023/10/31 06:26:37;;;;;;;7.50;3.72;;;13.30;99.90;;;;;;4987904;28;20061;-75
2023/10/31 06:29:03;;;;;;;8.38;3.75;;;13.30;99.90;;;;;;4985091;28;20034;-74
2023/10/31 06:31:29;;;;;;;5.38;3.00;;;13.20;99.90;;;;;;4984469;28;20258;-74
2023/10/31 06:33:55;;;;;;;6.75;3.50;;;13.20;99.90;;;;;;4982977;28;20125;-75
2023/10/31 06:36:20;;;;;;;8.60;3.83;;;13.20;99.90;;;;;;4980537;28;20030;-73
2023/10/31 06:38:46;;;;;;;9.57;4.13;;;13.20;99.90;;;;;;4984854;28;20041;-74
2023/10/31 06:41:12;;;;;;;8.32;3.85;;;13.20;99.90;;;;;;4984767;28;20062;-74
2023/10/31 06:43:37;;;;;;;4.97;2.80;;;13.10;99.90;;;;;;4983933;28;20638;-74
2023/10/31 06:46:05;;;;;;;7.85;3.50;;;13.10;99.90;;;;;;4986984;28;20359;-73
2023/10/31 06:48:30;;;;;;;5.82;2.85;;;13.00;99.90;;;;;;4989611;28;21215;-74
2023/10/31 06:50:56;;;;;;;9.52;3.63;;;12.90;99.90;;;;;;4988738;28;20033;-74
2023/10/31 06:53:22;;;;;;;8.27;2.55;;;12.90;99.90;;;;;;4993363;28;20964;-74
2023/10/31 06:55:48;;;;;;;8.70;2.72;;;12.70;99.90;;;;;;4989866;28;20042;-72
2023/10/31 06:58:14;;;;;;;5.65;2.90;;;12.60;99.90;;;;;;4986987;28;20022;-72
2023/10/31 07:00:39;;;;;;;5.20;2.50;;;12.60;99.90;;;;;;4987175;28;20057;-72
2023/10/31 07:03:11;;;;;;;5.30;2.10;;;12.60;99.90;;;;;;4987464;28;20045;-73
2023/10/31 07:05:37;;;;;;;3.53;1.50;;;12.50;99.90;;;;;;4993388;28;20025;-73
2023/10/31 07:08:04;;;;;;;2.47;1.30;;;12.60;99.90;;;;;;4988023;28;20042;-73
2023/10/31 07:10:30;;;;;;;3.03;0.75;;;12.60;99.90;;;;;;4986685;28;20026;-72
2023/10/31 07:12:56;;;;;;;2.38;0.90;;;12.60;99.90;;;;;;4985029;28;20041;-72
2023/10/31 07:15:21;;;;;;;3.88;0.80;;;12.70;99.90;;;;;;4989837;28;20177;-73
2023/10/31 07:17:47;;;;;;;2.00;1.00;;;12.60;99.90;;;;;;4986496;28;20488;-72
2023/10/31 07:20:13;;;;;;;4.47;0.98;;;12.70;99.90;;;;;;4986423;28;20452;-72
2023/10/31 07:22:39;;;;;;;1.10;0.50;;;12.80;99.90;;;;;;4987854;28;20033;-72
2023/10/31 07:25:06;;;;;;;1.48;0.60;;;12.80;99.90;;;;;;4986951;28;20058;-72
2023/10/31 07:27:32;;;;;;;1.77;0.70;;;12.60;99.90;;;;;;4988167;28;20041;-72
2023/10/31 07:29:58;;;;;;;2.30;0.60;;;12.60;99.90;;;;;;4985541;28;20023;-72
2023/10/31 07:32:24;;;;;;;2.83;0.60;;;12.50;99.90;;;;;;4990527;28;20026;-71
2023/10/31 07:34:50;;;;;;;2.97;0.95;;;12.50;99.90;;;;;;4993394;28;20038;-72
2023/10/31 07:37:16;;;;;;;3.10;1.20;;;12.40;99.90;;;;;;4988202;28;20437;-72
2023/10/31 07:39:42;;;;;;;3.85;0.88;;;12.40;99.90;;;;;;4993642;28;20041;-71
2023/10/31 07:42:07;;;;;;;2.13;1.00;;;12.40;99.90;;;;;;4984357;28;20069;-72
2023/10/31 07:44:33;;;;;;;1.92;0.80;;;12.50;99.90;;;;;;4996446;28;20030;-73
2023/10/31 07:46:59;;;;;;;4.18;1.00;;;12.50;99.90;;;;;;4992815;28;20029;-74
2023/10/31 07:49:25;;;;;;;4.57;1.75;;;12.50;99.90;;;;;;4988551;28;20048;-73
2023/10/31 07:51:50;;;;;;;2.08;0.93;;;12.30;99.90;;;;;;4986741;28;20104;-75
2023/10/31 07:54:17;;;;;;;2.40;1.30;;;12.40;99.90;;;;;;4990072;28;20042;-74
2023/10/31 07:56:42;;;;;;;6.28;1.25;;;12.50;99.90;;;;;;4993652;28;20037;-72
2023/10/31 07:59:08;;;;;;;8.00;1.75;;;12.50;99.90;;;;;;4988684;28;20408;-74
2023/10/31 08:01:35;;;;;;;2.63;1.10;;;12.50;99.90;;;;;;4985792;28;20036;-73
2023/10/31 08:04:01;;;;;;;5.00;1.33;;;12.60;99.90;;;;;;4993012;28;20702;-73
2023/10/31 08:06:26;;;;;;;4.32;1.45;;;12.60;99.90;;;;;;4985180;28;20183;-74
2023/10/31 08:08:52;;;;;;;3.60;1.20;;;12.50;99.90;;;;;;4992301;28;20096;-75
2023/10/31 08:11:18;;;;;;;5.55;1.80;;;12.40;99.90;;;;;;4986864;28;20030;-76
2023/10/31 08:13:43;;;;;;;1.77;1.05;;;12.40;99.90;;;;;;4986233;28;20089;-74
2023/10/31 08:16:09;;;;;;;2.60;0.85;;;12.30;99.90;;;;;;4986185;28;20034;-73
2023/10/31 08:18:35;;;;;;;1.83;0.85;;;12.30;99.90;;;;;;4994632;28;20030;-73
2023/10/31 08:21:01;;;;;;;1.30;0.45;;;12.30;99.90;;;;;;4986716;28;20089;-73
2023/10/31 08:23:28;;;;;;;1.80;0.60;;;12.20;99.90;;;;;;4985733;28;20026;-74
2023/10/31 08:25:54;;;;;;;3.20;0.68;;;12.20;99.90;;;;;;4988190;28;20117;-73
2023/10/31 08:28:20;;;;;;;2.30;0.45;;;12.20;99.90;;;;;;4987186;28;20106;-74
2023/10/31 08:30:46;;;;;;;1.50;0.60;;;12.40;99.90;;;;;;4986125;28;20113;-73
2023/10/31 08:33:12;;;;;;;0.82;0.40;;;12.10;99.90;;;;;;4986461;28;20069;-73
2023/10/31 08:35:38;;;;;;;0.77;0.38;;;12.00;99.90;;;;;;4994233;28;20066;-73
2023/10/31 08:38:03;;;;;;;0.82;0.47;;;11.80;99.90;;;;;;4985860;28;20101;-72
2023/10/31 08:40:29;;;;;;;0.20;0.10;;;11.70;99.90;;;;;;4986221;28;20034;-72
2023/10/31 08:42:55;;;;;;;0.70;0.22;;;11.60;99.90;;;;;;4988844;28;20038;-72
2023/10/31 08:45:21;;;;;;;1.65;0.40;;;11.50;99.90;;;;;;4995176;28;20504;-71
2023/10/31 08:47:47;;;;;;;0.75;0.20;;;11.50;99.90;;;;;;4986301;28;20072;-72
2023/10/31 08:50:13;;;;;;;0.32;0.20;;;11.40;99.90;;;;;;4993969;28;20388;-72
2023/10/31 08:52:39;;;;;;;0.60;0.13;;;11.40;99.90;;;;;;4988799;28;20116;-72
2023/10/31 08:55:06;;;;;;;1.50;0.25;;;11.30;99.90;;;;;;4990398;28;20046;-72
2023/10/31 08:57:33;;;;;;;2.17;0.30;;;11.30;99.90;;;;;;4997952;28;20072;-72
2023/10/31 08:59:59;;;;;;;1.85;0.45;;;11.20;99.90;;;;;;4987276;28;20053;-72
2023/10/31 09:02:25;;;;;;;0.40;0.08;;;11.10;99.90;;;;;;4985579;28;20042;-72
2023/10/31 09:04:50;;;;;;;1.23;0.40;;;11.10;99.90;;;;;;4993413;28;20037;-73
2023/10/31 09:07:16;;;;;;;0.25;0.10;;;11.10;99.90;;;;;;4985619;28;20053;-72
2023/10/31 09:09:42;;;;;;;1.85;0.70;;;11.20;99.90;;;;;;4988050;28;20030;-73
2023/10/31 09:12:08;;;;;;;0.90;0.45;;;11.20;99.90;;;;;;4987237;28;20033;-73
2023/10/31 09:14:35;;;;;;;1.20;0.40;;;11.20;99.90;;;;;;4985435;28;20046;-73
2023/10/31 09:17:01;;;;;;;1.83;0.50;;;11.40;99.90;;;;;;4986491;28;20110;-73
2023/10/31 09:19:26;;;;;;;0.10;0.00;;;11.30;99.90;;;;;;4985994;28;20102;-73
2023/10/31 09:21:52;;;;;;;2.50;0.30;;;11.40;99.90;;;;;;4992733;28;20030;-73
2023/10/31 09:24:18;;;;;;;1.75;0.35;;;11.60;99.90;;;;;;4986244;28;20092;-73
2023/10/31 09:26:43;;;;;;;1.30;0.28;;;11.70;99.90;;;;;;4985411;28;20023;-73
2023/10/31 09:29:13;;;;;;;3.28;0.98;;;11.70;99.90;;;;;;4985396;28;20101;-74
2023/10/31 09:31:38;;;;;;;0.82;0.38;;;11.70;99.90;;;;;;4991429;28;20097;-73
2023/10/31 09:34:04;;;;;;;2.08;1.02;;;11.60;99.90;;;;;;4984647;28;21015;-73
2023/10/31 09:36:36;;;;;;;5.47;3.10;;;11.80;99.90;;;;;;4984746;28;25644;-73
2023/10/31 09:39:03;;;;;;;4.65;2.70;;;11.80;99.90;;;;;;4985473;28;20034;-73
2023/10/31 09:41:29;;;;;;;2.78;0.73;;;11.80;99.90;;;;;;4984980;28;20046;-73
2023/10/31 09:43:54;;;;;;;1.65;1.20;;;11.80;99.90;;;;;;4984663;28;20026;-73
2023/10/31 09:46:21;;;;;;;1.75;0.82;;;11.80;99.90;;;;;;4987671;28;20030;-72
2023/10/31 09:48:49;;;;;;;1.00;0.65;;;11.40;99.90;;;;;;4984818;28;20423;-73
2023/10/31 09:51:15;;;;;;;0.32;0.15;;;11.50;99.90;;;;;;4984675;28;20113;-73
2023/10/31 09:53:44;;;;;;;3.85;0.90;;;11.50;99.90;;;;;;4985858;28;20096;-73
2023/10/31 09:56:10;;;;;;;0.25;0.15;;;11.50;99.90;;;;;;4985427;28;20375;-72
2023/10/31 09:58:36;;;;;;;1.58;0.63;;;11.50;99.90;;;;;;4992199;28;20041;-72
2023/10/31 10:01:02;;;;;;;1.50;0.50;;;11.60;99.90;;;;;;4985004;28;20034;-74
2023/10/31 10:03:29;;;;;;;0.40;0.05;;;11.40;99.90;;;;;;4985124;28;20134;-72
2023/10/31 10:05:55;;;;;;;0.20;0.00;;;11.40;99.90;;;;;;4991744;28;20522;-72
2023/10/31 10:08:21;;;;;;;0.70;0.13;;;11.40;99.90;;;;;;4984595;28;20683;-73
2023/10/31 10:10:48;;;;;;;0.10;0.10;;;11.30;99.90;;;;;;4993997;28;20041;-73
2023/10/31 10:13:17;;;;;;;1.02;0.70;;;11.40;99.90;;;;;;4997352;28;20037;-73
2023/10/31 10:15:49;;;;;;;0.38;0.15;;;11.50;99.90;;;;;;4985547;28;20392;-73
2023/10/31 10:18:31;;;;;;;0.40;0.20;;;11.40;99.90;;;;;;4987801;28;20042;-74
2023/10/31 10:21:02;;;;;;;0.20;0.10;;;11.20;99.90;;;;;;4987628;28;20088;-73
2023/10/31 10:23:29;;;;;;;2.00;0.63;;;11.30;99.90;;;;;;4984351;28;20114;-73
2023/10/31 10:25:57;;;;;;;0.75;0.38;;;11.50;99.90;;;;;;4986415;28;20061;-73
2023/10/31 10:28:26;;;;;;;0.00;0.00;;;11.40;99.90;;;;;;4983681;28;20034;-73
2023/10/31 10:30:53;;;;;;;0.00;0.00;;;11.50;99.90;;;;;;4985888;28;20041;-73
2023/10/31 10:33:20;;;;;;;0.30;0.20;;;11.40;99.90;;;;;;4986294;28;20034;-72
2023/10/31 10:35:46;;;;;;;0.08;0.03;;;11.40;99.90;;;;;;4984953;28;20030;-72
2023/10/31 10:38:17;;;;;;;0.10;0.00;;;11.30;99.90;;;;;;4984076;28;20782;-73
2023/10/31 10:40:45;;;;;;;0.60;0.10;;;11.30;99.90;;;;;;4991708;28;20037;-73
2023/10/31 10:43:22;;;;;;;0.03;0.00;;;11.30;99.90;;;;;;4991367;28;20061;-72
2023/10/31 10:45:55;;;;;;;0.25;0.10;;;11.30;99.90;;;;;;4985189;28;20031;-73
2023/10/31 10:48:22;;;;;;;0.28;0.10;;;11.30;99.90;;;;;;4984349;28;20022;-73
2023/10/31 10:50:59;;;;;;;2.08;0.77;;;11.20;99.90;;;;;;4985420;28;20030;-73
2023/10/31 10:53:29;;;;;;;0.38;0.10;;;11.20;99.90;;;;;;4990957;28;20033;-72
2023/10/31 10:56:02;;;;;;;0.45;0.20;;;11.20;99.90;;;;;;4984083;28;20030;-72
2023/10/31 10:58:36;;;;;;;0.80;0.20;;;11.10;99.90;;;;;;4991246;28;20583;-72
2023/10/31 11:01:04;;;;;;;0.15;0.10;;;11.20;99.90;;;;;;4984340;28;20492;-73
2023/10/31 11:03:30;;;;;;;0.47;0.17;;;11.20;99.90;;;;;;4984754;28;20061;-73
2023/10/31 11:05:55;;;;;;;0.88;0.10;;;11.00;99.90;;;;;;4989249;28;20157;-73
2023/10/31 11:08:24;;;;;;;0.60;0.13;;;10.90;99.90;;;;;;4994630;28;20088;-73
2023/10/31 11:10:51;;;;;;;0.25;0.10;;;10.90;99.90;;;;;;4990240;28;20574;-73
2023/10/31 11:13:17;;;;;;;0.50;0.15;;;10.90;99.90;;;;;;4983477;28;20152;-72
2023/10/31 11:15:43;;;;;;;0.32;0.15;;;10.80;99.90;;;;;;4983555;28;20100;-73
2023/10/31 11:18:12;;;;;;;0.68;0.20;;;10.70;99.90;;;;;;4997700;28;20120;-73
2023/10/31 11:20:39;;;;;;;0.82;0.22;;;10.70;99.90;;;;;;4992233;28;20085;-72
2023/10/31 11:23:06;;;;;;;0.52;0.30;;;10.70;99.90;;;;;;4992047;28;20026;-73
2023/10/31 11:25:33;;;;;;;0.80;0.25;;;10.90;99.90;;;;;;4993830;28;20026;-72
2023/10/31 11:28:17;;;;;;;0.50;0.10;;;10.80;99.90;;;;;;4998756;28;20052;-72
2023/10/31 11:30:45;;;;;;;0.13;0.08;;;10.80;99.90;;;;;;4993877;28;20026;-73
2023/10/31 11:33:15;;;;;;;0.30;0.10;;;10.80;99.90;;;;;;5007091;28;20388;-73
2023/10/31 11:35:44;;;;;;;0.65;0.10;;;10.80;99.90;;;;;;5004876;28;20030;-73
2023/10/31 11:38:11;;;;;;;0.38;0.10;;;10.90;99.90;;;;;;5005062;28;20026;-73
2023/10/31 11:40:49;;;;;;;4.45;0.38;;;10.90;99.90;;;;;;5000604;28;20033;-72
2023/10/31 11:43:15;;;;;;;1.08;0.15;;;10.90;99.90;;;;;;4999160;28;20032;-73
2023/10/31 11:45:44;;;;;;;0.10;0.08;;;10.90;99.90;;;;;;5001275;28;20104;-73
2023/10/31 11:48:10;;;;;;;2.72;0.30;;;11.00;99.90;;;;;;5006542;28;20065;-73
2023/10/31 11:50:37;;;;;;;0.25;0.20;;;11.10;99.90;;;;;;5008865;28;20061;-72
2023/10/31 11:53:08;;;;;;;0.08;0.08;;;11.20;99.90;;;;;;5009847;28;20034;-72
2023/10/31 11:55:40;;;;;;;0.20;0.17;;;11.30;99.90;;;;;;4997232;28;20035;-73
2023/10/31 11:58:23;;;;;;;0.52;0.10;;;11.40;99.90;;;;;;4991553;28;20126;-73
2023/10/31 12:00:51;;;;;;;0.90;0.10;;;11.60;99.90;;;;;;5001195;28;20098;-73
2023/10/31 12:03:18;;;;;;;1.75;0.98;;;11.60;99.90;;;;;;5002118;28;20045;-73
2023/10/31 12:05:59;;;;;;;1.08;0.30;;;11.60;99.90;;;;;;5001855;28;20495;-73
2023/10/31 12:08:32;;;;;;;1.15;0.40;;;11.70;99.90;;;;;;5001855;28;20034;-72
2023/10/31 12:11:08;;;;;;;2.83;0.75;;;11.80;99.90;;;;;;5004189;28;20030;-72
2023/10/31 12:13:36;;;;;;;19.10;13.50;;;11.70;99.90;;;;;;4984590;28;20055;-73
2023/10/31 12:16:02;;;;;;;1.13;0.75;;;11.80;99.90;;;;;;4968073;28;20030;-73
2023/10/31 12:18:29;;;;;;;0.82;0.40;;;11.70;99.90;;;;;;4981510;28;20030;-72
2023/10/31 12:20:55;;;;;;;1.85;0.90;;;11.80;99.90;;;;;;4966597;28;20165;-73
2023/10/31 12:23:21;;;;;;;2.63;1.50;;;11.90;99.90;;;;;;4975568;28;20553;-73
2023/10/31 12:25:51;;;;;;;4.65;3.72;;;12.00;99.90;;;;;;4977644;28;20090;-73
2023/10/31 12:28:21;;;;;;;2.78;1.60;;;12.20;99.90;;;;;;4989686;28;20113;-73
2023/10/31 12:30:48;;;;;;;0.68;0.38;;;12.40;99.90;;;;;;4984431;28;20215;-72
2023/10/31 12:33:14;;;;;;;1.13;0.73;;;12.50;99.90;;;;;;4984010;28;20113;-72
2023/10/31 12:35:41;;;;;;;1.30;0.90;;;12.70;99.90;;;;;;4986917;28;20053;-72
2023/10/31 12:38:09;;;;;;;2.47;1.10;;;13.00;99.90;;;;;;4985909;28;20038;-73
2023/10/31 12:40:35;;;;;;;0.65;0.40;;;13.00;99.90;;;;;;4981280;28;20050;-72
2023/10/31 12:43:03;;;;;;;0.50;0.28;;;13.00;99.90;;;;;;4972818;28;20062;-73